sensor_id;sensor_type;location;lat;lon;timestamp;P1;durP1;ratioP1;P2;durP2;ratioP2
73023;SDS011;61199;47.526;8.538;2023-08-30T00:01:00;10.77;;;7.27;;
73023;SDS011;61199;47.526;8.538;2023-08-30T00:03:27;11.00;;;7.90;;
73023;SDS011;61199;47.526;8.538;2023-08-30T00:05:54;11.83;;;6.93;;
73023;SDS011;61199;47.526;8.538;2023-08-30T00:08:24;12.83;;;7.40;;
73023;SDS011;61199;47.526;8.538;2023-08-30T00:10:50;15.63;;;8.13;;
73023;SDS011;61199;47.526;8.538;2023-08-30T00:13:17;9.60;;;7.13;;
73023;SDS011;61199;47.526;8.538;2023-08-30T00:15:44;10.40;;;7.43;;
73023;SDS011;61199;47.526;8.538;2023-08-30T00:18:10;10.47;;;8.00;;
73023;SDS011;61199;47.526;8.538;2023-08-30T00:20:37;13.03;;;6.63;;
73023;SDS011;61199;47.526;8.538;2023-08-30T00:23:04;11.77;;;7.47;;
73023;SDS011;61199;47.526;8.538;2023-08-30T00:25:31;11.77;;;7.17;;
73023;SDS011;61199;47.526;8.538;2023-08-30T00:27:58;12.83;;;7.40;;
73023;SDS011;61199;47.526;8.538;2023-08-30T00:30:25;14.87;;;7.83;;
73023;SDS011;61199;47.526;8.538;2023-08-30T00:32:51;10.93;;;7.40;;
73023;SDS011;61199;47.526;8.538;2023-08-30T00:35:18;8.60;;;6.67;;
73023;SDS011;61199;47.526;8.538;2023-08-30T00:37:44;10.17;;;7.80;;
73023;SDS011;61199;47.526;8.538;2023-08-30T00:40:11;9.20;;;6.80;;
73023;SDS011;61199;47.526;8.538;2023-08-30T00:42:37;12.23;;;7.20;;
73023;SDS011;61199;47.526;8.538;2023-08-30T00:45:06;12.07;;;8.20;;
73023;SDS011;61199;47.526;8.538;2023-08-30T00:47:33;9.60;;;6.70;;
73023;SDS011;61199;47.526;8.538;2023-08-30T00:50:01;11.30;;;7.33;;
73023;SDS011;61199;47.526;8.538;2023-08-30T00:52:28;11.77;;;7.50;;
73023;SDS011;61199;47.526;8.538;2023-08-30T00:54:54;13.70;;;7.70;;
73023;SDS011;61199;47.526;8.538;2023-08-30T00:57:21;11.23;;;7.93;;
73023;SDS011;61199;47.526;8.538;2023-08-30T00:59:47;13.00;;;7.70;;
73023;SDS011;61199;47.526;8.538;2023-08-30T01:02:18;13.40;;;8.00;;
73023;SDS011;61199;47.526;8.538;2023-08-30T01:04:45;11.10;;;7.77;;
73023;SDS011;61199;47.526;8.538;2023-08-30T01:07:12;13.40;;;8.63;;
73023;SDS011;61199;47.526;8.538;2023-08-30T01:09:38;10.90;;;7.30;;
73023;SDS011;61199;47.526;8.538;2023-08-30T01:12:13;8.60;;;6.60;;
73023;SDS011;61199;47.526;8.538;2023-08-30T01:14:52;9.17;;;6.90;;
73023;SDS011;61199;47.526;8.538;2023-08-30T01:17:32;9.00;;;6.60;;
73023;SDS011;61199;47.526;8.538;2023-08-30T01:20:01;8.93;;;6.07;;
73023;SDS011;61199;47.526;8.538;2023-08-30T01:25:31;8.53;;;5.80;;
73023;SDS011;61199;47.526;8.538;2023-08-30T01:28:19;6.80;;;5.40;;
73023;SDS011;61199;47.526;8.538;2023-08-30T01:30:47;10.20;;;6.53;;
73023;SDS011;61199;47.526;8.538;2023-08-30T01:33:14;13.87;;;7.50;;
73023;SDS011;61199;47.526;8.538;2023-08-30T01:35:43;8.80;;;6.50;;
73023;SDS011;61199;47.526;8.538;2023-08-30T01:38:10;9.53;;;7.10;;
73023;SDS011;61199;47.526;8.538;2023-08-30T01:40:39;12.23;;;7.17;;
73023;SDS011;61199;47.526;8.538;2023-08-30T01:43:08;9.30;;;6.60;;
73023;SDS011;61199;47.526;8.538;2023-08-30T01:45:43;11.37;;;7.60;;
73023;SDS011;61199;47.526;8.538;2023-08-30T01:48:13;14.57;;;6.87;;
73023;SDS011;61199;47.526;8.538;2023-08-30T01:50:42;14.83;;;7.20;;
73023;SDS011;61199;47.526;8.538;2023-08-30T01:53:10;10.10;;;7.53;;
73023;SDS011;61199;47.526;8.538;2023-08-30T01:55:38;9.73;;;6.60;;
73023;SDS011;61199;47.526;8.538;2023-08-30T01:58:06;12.73;;;7.97;;
73023;SDS011;61199;47.526;8.538;2023-08-30T02:00:34;11.93;;;7.57;;
73023;SDS011;61199;47.526;8.538;2023-08-30T02:03:08;12.17;;;9.03;;
73023;SDS011;61199;47.526;8.538;2023-08-30T02:05:37;12.10;;;8.93;;
73023;SDS011;61199;47.526;8.538;2023-08-30T02:08:13;11.33;;;7.70;;
73023;SDS011;61199;47.526;8.538;2023-08-30T02:10:48;10.30;;;7.73;;
73023;SDS011;61199;47.526;8.538;2023-08-30T02:13:25;10.90;;;8.23;;
73023;SDS011;61199;47.526;8.538;2023-08-30T02:15:56;13.57;;;8.27;;
73023;SDS011;61199;47.526;8.538;2023-08-30T02:18:25;11.30;;;7.83;;
73023;SDS011;61199;47.526;8.538;2023-08-30T02:20:53;15.97;;;8.37;;
73023;SDS011;61199;47.526;8.538;2023-08-30T02:23:22;14.70;;;7.70;;
73023;SDS011;61199;47.526;8.538;2023-08-30T02:25:49;14.00;;;7.80;;
73023;SDS011;61199;47.526;8.538;2023-08-30T02:28:16;19.13;;;9.17;;
73023;SDS011;61199;47.526;8.538;2023-08-30T02:30:42;18.07;;;8.50;;
73023;SDS011;61199;47.526;8.538;2023-08-30T02:33:08;14.93;;;9.73;;
73023;SDS011;61199;47.526;8.538;2023-08-30T02:35:35;17.87;;;10.70;;
73023;SDS011;61199;47.526;8.538;2023-08-30T02:38:01;17.80;;;11.20;;
73023;SDS011;61199;47.526;8.538;2023-08-30T02:40:31;16.03;;;11.20;;
73023;SDS011;61199;47.526;8.538;2023-08-30T02:42:58;21.10;;;11.20;;
73023;SDS011;61199;47.526;8.538;2023-08-30T02:45:24;17.20;;;11.13;;
73023;SDS011;61199;47.526;8.538;2023-08-30T02:47:54;16.43;;;11.60;;
73023;SDS011;61199;47.526;8.538;2023-08-30T02:50:23;19.50;;;11.03;;
73023;SDS011;61199;47.526;8.538;2023-08-30T02:52:50;16.80;;;10.00;;
73023;SDS011;61199;47.526;8.538;2023-08-30T02:55:18;15.50;;;10.50;;
73023;SDS011;61199;47.526;8.538;2023-08-30T02:57:45;25.70;;;10.23;;
73023;SDS011;61199;47.526;8.538;2023-08-30T03:00:12;15.50;;;10.57;;
73023;SDS011;61199;47.526;8.538;2023-08-30T03:02:39;19.07;;;10.50;;
73023;SDS011;61199;47.526;8.538;2023-08-30T03:05:06;16.27;;;10.90;;
73023;SDS011;61199;47.526;8.538;2023-08-30T03:07:33;12.97;;;9.40;;
73023;SDS011;61199;47.526;8.538;2023-08-30T03:10:00;13.77;;;9.20;;
73023;SDS011;61199;47.526;8.538;2023-08-30T03:12:26;11.90;;;8.60;;
73023;SDS011;61199;47.526;8.538;2023-08-30T03:14:53;12.77;;;9.37;;
73023;SDS011;61199;47.526;8.538;2023-08-30T03:17:20;16.33;;;9.67;;
73023;SDS011;61199;47.526;8.538;2023-08-30T03:19:46;15.27;;;10.17;;
73023;SDS011;61199;47.526;8.538;2023-08-30T03:22:13;13.83;;;9.93;;
73023;SDS011;61199;47.526;8.538;2023-08-30T03:24:39;13.00;;;9.50;;
73023;SDS011;61199;47.526;8.538;2023-08-30T03:27:06;18.20;;;10.43;;
73023;SDS011;61199;47.526;8.538;2023-08-30T03:29:32;15.57;;;10.27;;
73023;SDS011;61199;47.526;8.538;2023-08-30T03:32:00;17.70;;;10.23;;
73023;SDS011;61199;47.526;8.538;2023-08-30T03:34:27;18.20;;;10.77;;
73023;SDS011;61199;47.526;8.538;2023-08-30T03:36:53;16.10;;;10.43;;
73023;SDS011;61199;47.526;8.538;2023-08-30T03:39:23;16.07;;;10.97;;
73023;SDS011;61199;47.526;8.538;2023-08-30T03:41:50;15.83;;;10.37;;
73023;SDS011;61199;47.526;8.538;2023-08-30T03:44:17;13.87;;;10.23;;
73023;SDS011;61199;47.526;8.538;2023-08-30T03:46:43;14.27;;;10.10;;
73023;SDS011;61199;47.526;8.538;2023-08-30T03:49:10;23.70;;;9.60;;
73023;SDS011;61199;47.526;8.538;2023-08-30T03:51:36;16.40;;;10.10;;
73023;SDS011;61199;47.526;8.538;2023-08-30T03:54:03;17.83;;;10.60;;
73023;SDS011;61199;47.526;8.538;2023-08-30T03:56:29;14.90;;;8.93;;
73023;SDS011;61199;47.526;8.538;2023-08-30T03:58:56;13.67;;;9.83;;
73023;SDS011;61199;47.526;8.538;2023-08-30T04:01:23;12.30;;;9.13;;
73023;SDS011;61199;47.526;8.538;2023-08-30T04:03:49;12.43;;;8.73;;
73023;SDS011;61199;47.526;8.538;2023-08-30T04:06:16;13.90;;;9.80;;
73023;SDS011;61199;47.526;8.538;2023-08-30T04:08:42;12.93;;;9.23;;
73023;SDS011;61199;47.526;8.538;2023-08-30T04:11:09;14.43;;;9.90;;
73023;SDS011;61199;47.526;8.538;2023-08-30T04:13:35;14.40;;;10.13;;
73023;SDS011;61199;47.526;8.538;2023-08-30T04:16:02;14.27;;;9.20;;
73023;SDS011;61199;47.526;8.538;2023-08-30T04:18:30;19.63;;;9.97;;
73023;SDS011;61199;47.526;8.538;2023-08-30T04:20:57;17.57;;;10.57;;
73023;SDS011;61199;47.526;8.538;2023-08-30T04:23:24;15.17;;;9.80;;
73023;SDS011;61199;47.526;8.538;2023-08-30T04:25:51;14.80;;;10.77;;
73023;SDS011;61199;47.526;8.538;2023-08-30T04:28:18;21.13;;;11.90;;
73023;SDS011;61199;47.526;8.538;2023-08-30T04:30:44;16.97;;;11.77;;
73023;SDS011;61199;47.526;8.538;2023-08-30T04:33:11;17.23;;;11.63;;
73023;SDS011;61199;47.526;8.538;2023-08-30T04:35:37;19.83;;;12.57;;
73023;SDS011;61199;47.526;8.538;2023-08-30T04:38:05;19.20;;;13.20;;
73023;SDS011;61199;47.526;8.538;2023-08-30T04:40:32;20.50;;;13.80;;
73023;SDS011;61199;47.526;8.538;2023-08-30T04:42:59;19.97;;;13.10;;
73023;SDS011;61199;47.526;8.538;2023-08-30T04:45:26;22.03;;;14.00;;
73023;SDS011;61199;47.526;8.538;2023-08-30T04:47:52;18.00;;;12.30;;
73023;SDS011;61199;47.526;8.538;2023-08-30T04:50:19;19.77;;;12.97;;
73023;SDS011;61199;47.526;8.538;2023-08-30T04:52:46;19.83;;;12.93;;
73023;SDS011;61199;47.526;8.538;2023-08-30T04:55:12;18.00;;;11.93;;
73023;SDS011;61199;47.526;8.538;2023-08-30T04:57:40;20.70;;;13.27;;
73023;SDS011;61199;47.526;8.538;2023-08-30T05:00:11;22.90;;;13.17;;
73023;SDS011;61199;47.526;8.538;2023-08-30T05:02:38;24.97;;;14.57;;
73023;SDS011;61199;47.526;8.538;2023-08-30T05:05:05;25.63;;;16.43;;
73023;SDS011;61199;47.526;8.538;2023-08-30T05:07:32;24.03;;;15.40;;
73023;SDS011;61199;47.526;8.538;2023-08-30T05:09:59;27.50;;;17.00;;
73023;SDS011;61199;47.526;8.538;2023-08-30T05:12:25;34.03;;;20.83;;
73023;SDS011;61199;47.526;8.538;2023-08-30T05:14:52;30.63;;;17.47;;
73023;SDS011;61199;47.526;8.538;2023-08-30T05:17:18;27.33;;;16.03;;
73023;SDS011;61199;47.526;8.538;2023-08-30T05:19:45;27.47;;;15.70;;
73023;SDS011;61199;47.526;8.538;2023-08-30T05:22:12;24.00;;;14.30;;
73023;SDS011;61199;47.526;8.538;2023-08-30T05:24:39;26.67;;;15.30;;
73023;SDS011;61199;47.526;8.538;2023-08-30T05:27:05;25.53;;;15.33;;
73023;SDS011;61199;47.526;8.538;2023-08-30T05:29:33;24.57;;;14.47;;
73023;SDS011;61199;47.526;8.538;2023-08-30T05:31:59;28.27;;;17.00;;
73023;SDS011;61199;47.526;8.538;2023-08-30T05:34:26;27.93;;;16.03;;
73023;SDS011;61199;47.526;8.538;2023-08-30T05:36:53;28.43;;;17.20;;
73023;SDS011;61199;47.526;8.538;2023-08-30T05:39:19;27.63;;;16.00;;
73023;SDS011;61199;47.526;8.538;2023-08-30T05:41:46;27.13;;;16.70;;
73023;SDS011;61199;47.526;8.538;2023-08-30T05:44:12;25.90;;;15.40;;
73023;SDS011;61199;47.526;8.538;2023-08-30T05:46:39;22.07;;;14.50;;
73023;SDS011;61199;47.526;8.538;2023-08-30T05:49:06;20.33;;;13.00;;
73023;SDS011;61199;47.526;8.538;2023-08-30T05:51:32;20.07;;;13.53;;
73023;SDS011;61199;47.526;8.538;2023-08-30T05:54:01;27.70;;;14.40;;
73023;SDS011;61199;47.526;8.538;2023-08-30T05:56:28;24.67;;;15.40;;
73023;SDS011;61199;47.526;8.538;2023-08-30T05:58:55;22.20;;;14.67;;
73023;SDS011;61199;47.526;8.538;2023-08-30T06:01:21;24.43;;;14.30;;
73023;SDS011;61199;47.526;8.538;2023-08-30T06:03:48;22.97;;;14.90;;
73023;SDS011;61199;47.526;8.538;2023-08-30T06:06:15;24.90;;;14.17;;
73023;SDS011;61199;47.526;8.538;2023-08-30T06:08:42;20.97;;;13.77;;
73023;SDS011;61199;47.526;8.538;2023-08-30T06:11:08;20.03;;;14.30;;
73023;SDS011;61199;47.526;8.538;2023-08-30T06:13:35;26.37;;;13.97;;
73023;SDS011;61199;47.526;8.538;2023-08-30T06:16:02;24.60;;;13.73;;
73023;SDS011;61199;47.526;8.538;2023-08-30T06:18:29;20.73;;;13.70;;
73023;SDS011;61199;47.526;8.538;2023-08-30T06:20:57;23.07;;;13.50;;
73023;SDS011;61199;47.526;8.538;2023-08-30T06:23:23;19.63;;;13.60;;
73023;SDS011;61199;47.526;8.538;2023-08-30T06:25:54;21.33;;;14.33;;
73023;SDS011;61199;47.526;8.538;2023-08-30T06:28:21;19.20;;;12.57;;
73023;SDS011;61199;47.526;8.538;2023-08-30T06:30:48;21.80;;;13.27;;
73023;SDS011;61199;47.526;8.538;2023-08-30T06:33:15;18.97;;;13.17;;
73023;SDS011;61199;47.526;8.538;2023-08-30T06:35:41;22.07;;;14.00;;
73023;SDS011;61199;47.526;8.538;2023-08-30T06:38:08;17.77;;;12.37;;
73023;SDS011;61199;47.526;8.538;2023-08-30T06:40:36;16.90;;;11.63;;
73023;SDS011;61199;47.526;8.538;2023-08-30T06:43:02;19.43;;;11.10;;
73023;SDS011;61199;47.526;8.538;2023-08-30T06:45:29;19.30;;;11.60;;
73023;SDS011;61199;47.526;8.538;2023-08-30T06:47:55;15.43;;;10.50;;
73023;SDS011;61199;47.526;8.538;2023-08-30T06:50:22;15.90;;;10.77;;
73023;SDS011;61199;47.526;8.538;2023-08-30T06:52:48;16.37;;;10.27;;
73023;SDS011;61199;47.526;8.538;2023-08-30T06:55:15;15.67;;;9.60;;
73023;SDS011;61199;47.526;8.538;2023-08-30T06:57:41;15.70;;;10.57;;
73023;SDS011;61199;47.526;8.538;2023-08-30T07:00:13;15.17;;;9.60;;
73023;SDS011;61199;47.526;8.538;2023-08-30T07:02:40;16.70;;;11.37;;
73023;SDS011;61199;47.526;8.538;2023-08-30T07:05:11;20.40;;;11.00;;
73023;SDS011;61199;47.526;8.538;2023-08-30T07:07:38;17.20;;;11.63;;
73023;SDS011;61199;47.526;8.538;2023-08-30T07:10:05;19.10;;;12.47;;
73023;SDS011;61199;47.526;8.538;2023-08-30T07:12:32;18.80;;;12.40;;
73023;SDS011;61199;47.526;8.538;2023-08-30T07:14:58;20.30;;;13.10;;
73023;SDS011;61199;47.526;8.538;2023-08-30T07:17:25;21.00;;;12.73;;
73023;SDS011;61199;47.526;8.538;2023-08-30T07:19:59;18.20;;;12.77;;
73023;SDS011;61199;47.526;8.538;2023-08-30T07:22:25;19.30;;;13.50;;
73023;SDS011;61199;47.526;8.538;2023-08-30T07:24:52;18.50;;;12.43;;
73023;SDS011;61199;47.526;8.538;2023-08-30T07:27:18;20.40;;;11.63;;
73023;SDS011;61199;47.526;8.538;2023-08-30T07:29:45;20.90;;;13.10;;
73023;SDS011;61199;47.526;8.538;2023-08-30T07:32:11;27.00;;;14.40;;
73023;SDS011;61199;47.526;8.538;2023-08-30T07:34:38;20.90;;;14.30;;
73023;SDS011;61199;47.526;8.538;2023-08-30T07:37:04;18.43;;;12.80;;
73023;SDS011;61199;47.526;8.538;2023-08-30T07:39:31;17.30;;;12.97;;
73023;SDS011;61199;47.526;8.538;2023-08-30T07:41:57;22.27;;;13.10;;
73023;SDS011;61199;47.526;8.538;2023-08-30T07:44:23;19.20;;;13.20;;
73023;SDS011;61199;47.526;8.538;2023-08-30T07:46:50;16.33;;;11.60;;
73023;SDS011;61199;47.526;8.538;2023-08-30T07:49:16;19.20;;;12.67;;
73023;SDS011;61199;47.526;8.538;2023-08-30T07:51:43;18.77;;;13.00;;
73023;SDS011;61199;47.526;8.538;2023-08-30T07:54:09;16.97;;;11.53;;
73023;SDS011;61199;47.526;8.538;2023-08-30T07:56:36;24.00;;;13.30;;
73023;SDS011;61199;47.526;8.538;2023-08-30T07:59:02;17.83;;;12.70;;
73023;SDS011;61199;47.526;8.538;2023-08-30T08:01:29;15.70;;;11.50;;
73023;SDS011;61199;47.526;8.538;2023-08-30T08:03:55;16.10;;;11.60;;
73023;SDS011;61199;47.526;8.538;2023-08-30T08:06:33;16.37;;;12.20;;
73023;SDS011;61199;47.526;8.538;2023-08-30T08:09:00;24.63;;;15.23;;
73023;SDS011;61199;47.526;8.538;2023-08-30T08:11:26;23.67;;;13.40;;
73023;SDS011;61199;47.526;8.538;2023-08-30T08:13:53;19.43;;;13.77;;
73023;SDS011;61199;47.526;8.538;2023-08-30T08:16:19;17.83;;;12.43;;
73023;SDS011;61199;47.526;8.538;2023-08-30T08:18:46;17.87;;;12.10;;
73023;SDS011;61199;47.526;8.538;2023-08-30T08:21:13;19.30;;;12.13;;
73023;SDS011;61199;47.526;8.538;2023-08-30T08:23:40;16.70;;;11.80;;
73023;SDS011;61199;47.526;8.538;2023-08-30T08:26:08;16.53;;;10.87;;
73023;SDS011;61199;47.526;8.538;2023-08-30T08:28:34;19.17;;;12.40;;
73023;SDS011;61199;47.526;8.538;2023-08-30T08:31:01;16.77;;;10.67;;
73023;SDS011;61199;47.526;8.538;2023-08-30T08:33:27;21.87;;;11.00;;
73023;SDS011;61199;47.526;8.538;2023-08-30T08:35:54;14.50;;;9.77;;
73023;SDS011;61199;47.526;8.538;2023-08-30T08:38:20;11.30;;;8.40;;
73023;SDS011;61199;47.526;8.538;2023-08-30T08:40:47;12.80;;;9.07;;
73023;SDS011;61199;47.526;8.538;2023-08-30T08:43:13;14.77;;;8.80;;
73023;SDS011;61199;47.526;8.538;2023-08-30T08:45:41;15.17;;;9.30;;
73023;SDS011;61199;47.526;8.538;2023-08-30T08:48:10;11.17;;;8.47;;
73023;SDS011;61199;47.526;8.538;2023-08-30T08:50:39;13.27;;;8.50;;
73023;SDS011;61199;47.526;8.538;2023-08-30T08:53:06;11.20;;;7.53;;
73023;SDS011;61199;47.526;8.538;2023-08-30T08:55:34;10.50;;;7.47;;
73023;SDS011;61199;47.526;8.538;2023-08-30T08:58:01;11.50;;;7.87;;
73023;SDS011;61199;47.526;8.538;2023-08-30T09:00:30;11.77;;;7.27;;
73023;SDS011;61199;47.526;8.538;2023-08-30T09:02:57;10.87;;;7.30;;
73023;SDS011;61199;47.526;8.538;2023-08-30T09:05:25;8.53;;;6.57;;
73023;SDS011;61199;47.526;8.538;2023-08-30T09:07:52;7.20;;;5.80;;
73023;SDS011;61199;47.526;8.538;2023-08-30T09:10:20;10.13;;;6.47;;
73023;SDS011;61199;47.526;8.538;2023-08-30T09:12:48;13.33;;;6.83;;
73023;SDS011;61199;47.526;8.538;2023-08-30T09:15:14;8.67;;;6.13;;
73023;SDS011;61199;47.526;8.538;2023-08-30T09:17:42;12.20;;;6.60;;
73023;SDS011;61199;47.526;8.538;2023-08-30T09:20:10;9.20;;;6.70;;
73023;SDS011;61199;47.526;8.538;2023-08-30T09:22:41;11.63;;;6.80;;
73023;SDS011;61199;47.526;8.538;2023-08-30T09:25:10;9.20;;;6.60;;
73023;SDS011;61199;47.526;8.538;2023-08-30T09:27:38;10.20;;;6.87;;
73023;SDS011;61199;47.526;8.538;2023-08-30T09:30:07;7.33;;;5.70;;
73023;SDS011;61199;47.526;8.538;2023-08-30T09:32:39;8.80;;;5.97;;
73023;SDS011;61199;47.526;8.538;2023-08-30T09:35:08;7.57;;;6.00;;
73023;SDS011;61199;47.526;8.538;2023-08-30T09:37:35;6.40;;;5.00;;
73023;SDS011;61199;47.526;8.538;2023-08-30T09:40:02;10.90;;;5.80;;
73023;SDS011;61199;47.526;8.538;2023-08-30T09:42:28;7.23;;;5.60;;
73023;SDS011;61199;47.526;8.538;2023-08-30T09:44:56;8.67;;;5.00;;
73023;SDS011;61199;47.526;8.538;2023-08-30T09:47:24;6.80;;;5.30;;
73023;SDS011;61199;47.526;8.538;2023-08-30T09:49:54;6.40;;;4.43;;
73023;SDS011;61199;47.526;8.538;2023-08-30T09:52:23;8.77;;;5.40;;
73023;SDS011;61199;47.526;8.538;2023-08-30T09:54:51;8.73;;;5.53;;
73023;SDS011;61199;47.526;8.538;2023-08-30T09:57:19;9.07;;;4.70;;
73023;SDS011;61199;47.526;8.538;2023-08-30T09:59:47;8.53;;;5.10;;
73023;SDS011;61199;47.526;8.538;2023-08-30T10:02:14;8.00;;;5.70;;
73023;SDS011;61199;47.526;8.538;2023-08-30T10:04:42;6.97;;;5.40;;
73023;SDS011;61199;47.526;8.538;2023-08-30T10:07:10;6.77;;;4.90;;
73023;SDS011;61199;47.526;8.538;2023-08-30T10:09:37;10.50;;;5.40;;
73023;SDS011;61199;47.526;8.538;2023-08-30T10:12:20;8.17;;;5.97;;
73023;SDS011;61199;47.526;8.538;2023-08-30T10:14:48;5.10;;;4.37;;
73023;SDS011;61199;47.526;8.538;2023-08-30T10:17:15;6.10;;;4.70;;
73023;SDS011;61199;47.526;8.538;2023-08-30T10:19:44;6.17;;;4.57;;
73023;SDS011;61199;47.526;8.538;2023-08-30T10:22:12;8.07;;;5.20;;
73023;SDS011;61199;47.526;8.538;2023-08-30T10:24:42;5.97;;;4.90;;
73023;SDS011;61199;47.526;8.538;2023-08-30T10:27:34;8.40;;;4.47;;
73023;SDS011;61199;47.526;8.538;2023-08-30T10:30:04;8.47;;;5.27;;
73023;SDS011;61199;47.526;8.538;2023-08-30T10:32:37;6.70;;;4.73;;
73023;SDS011;61199;47.526;8.538;2023-08-30T10:35:10;6.70;;;4.73;;
73023;SDS011;61199;47.526;8.538;2023-08-30T10:37:38;6.60;;;4.77;;
73023;SDS011;61199;47.526;8.538;2023-08-30T10:40:05;8.03;;;5.10;;
73023;SDS011;61199;47.526;8.538;2023-08-30T10:42:32;6.50;;;4.40;;
73023;SDS011;61199;47.526;8.538;2023-08-30T10:45:00;5.97;;;4.90;;
73023;SDS011;61199;47.526;8.538;2023-08-30T10:47:37;7.30;;;4.83;;
73023;SDS011;61199;47.526;8.538;2023-08-30T10:50:09;7.23;;;5.50;;
73023;SDS011;61199;47.526;8.538;2023-08-30T10:52:37;7.67;;;4.50;;
73023;SDS011;61199;47.526;8.538;2023-08-30T10:55:14;7.67;;;5.77;;
73023;SDS011;61199;47.526;8.538;2023-08-30T10:57:42;7.60;;;4.80;;
73023;SDS011;61199;47.526;8.538;2023-08-30T11:02:44;6.27;;;4.80;;
73023;SDS011;61199;47.526;8.538;2023-08-30T11:05:15;10.13;;;4.20;;
73023;SDS011;61199;47.526;8.538;2023-08-30T11:07:45;8.73;;;4.50;;
73023;SDS011;61199;47.526;8.538;2023-08-30T11:10:13;5.30;;;4.43;;
73023;SDS011;61199;47.526;8.538;2023-08-30T11:12:40;4.07;;;3.37;;
73023;SDS011;61199;47.526;8.538;2023-08-30T11:15:09;5.53;;;3.40;;
73023;SDS011;61199;47.526;8.538;2023-08-30T11:17:36;5.07;;;3.80;;
73023;SDS011;61199;47.526;8.538;2023-08-30T11:20:07;5.90;;;3.50;;
73023;SDS011;61199;47.526;8.538;2023-08-30T11:22:44;11.43;;;3.90;;
73023;SDS011;61199;47.526;8.538;2023-08-30T11:25:12;4.20;;;3.83;;
73023;SDS011;61199;47.526;8.538;2023-08-30T11:27:40;5.50;;;3.50;;
73023;SDS011;61199;47.526;8.538;2023-08-30T11:30:07;5.13;;;4.43;;
73023;SDS011;61199;47.526;8.538;2023-08-30T11:32:35;11.63;;;5.03;;
73023;SDS011;61199;47.526;8.538;2023-08-30T11:35:03;9.80;;;4.53;;
73023;SDS011;61199;47.526;8.538;2023-08-30T11:37:30;6.23;;;3.90;;
73023;SDS011;61199;47.526;8.538;2023-08-30T11:39:58;6.23;;;3.63;;
73023;SDS011;61199;47.526;8.538;2023-08-30T11:42:25;8.43;;;4.60;;
73023;SDS011;61199;47.526;8.538;2023-08-30T11:44:52;5.60;;;3.77;;
73023;SDS011;61199;47.526;8.538;2023-08-30T11:47:23;4.83;;;3.40;;
73023;SDS011;61199;47.526;8.538;2023-08-30T11:49:54;5.27;;;3.60;;
73023;SDS011;61199;47.526;8.538;2023-08-30T11:52:22;5.33;;;3.80;;
73023;SDS011;61199;47.526;8.538;2023-08-30T11:54:50;3.73;;;3.43;;
73023;SDS011;61199;47.526;8.538;2023-08-30T11:57:17;4.50;;;4.30;;
73023;SDS011;61199;47.526;8.538;2023-08-30T11:59:44;4.87;;;3.90;;
73023;SDS011;61199;47.526;8.538;2023-08-30T12:02:13;4.70;;;3.20;;
73023;SDS011;61199;47.526;8.538;2023-08-30T12:04:42;5.90;;;3.30;;
73023;SDS011;61199;47.526;8.538;2023-08-30T12:07:10;4.97;;;3.77;;
73023;SDS011;61199;47.526;8.538;2023-08-30T12:09:39;5.60;;;4.30;;
73023;SDS011;61199;47.526;8.538;2023-08-30T12:12:06;5.70;;;4.10;;
73023;SDS011;61199;47.526;8.538;2023-08-30T12:14:35;5.43;;;4.17;;
73023;SDS011;61199;47.526;8.538;2023-08-30T12:17:02;6.67;;;3.90;;
73023;SDS011;61199;47.526;8.538;2023-08-30T12:19:30;6.30;;;4.00;;
73023;SDS011;61199;47.526;8.538;2023-08-30T12:22:02;5.27;;;4.30;;
73023;SDS011;61199;47.526;8.538;2023-08-30T12:24:45;6.20;;;3.57;;
73023;SDS011;61199;47.526;8.538;2023-08-30T12:27:13;5.73;;;3.80;;
73023;SDS011;61199;47.526;8.538;2023-08-30T12:29:40;6.03;;;3.67;;
73023;SDS011;61199;47.526;8.538;2023-08-30T12:32:07;3.80;;;3.03;;
73023;SDS011;61199;47.526;8.538;2023-08-30T12:34:34;4.67;;;3.60;;
73023;SDS011;61199;47.526;8.538;2023-08-30T12:37:01;5.03;;;3.70;;
73023;SDS011;61199;47.526;8.538;2023-08-30T12:39:30;5.00;;;2.90;;
73023;SDS011;61199;47.526;8.538;2023-08-30T12:41:57;5.77;;;4.20;;
73023;SDS011;61199;47.526;8.538;2023-08-30T12:44:24;5.57;;;4.07;;
73023;SDS011;61199;47.526;8.538;2023-08-30T12:46:50;4.90;;;3.70;;
73023;SDS011;61199;47.526;8.538;2023-08-30T12:49:16;4.63;;;3.00;;
73023;SDS011;61199;47.526;8.538;2023-08-30T12:51:43;3.20;;;2.60;;
73023;SDS011;61199;47.526;8.538;2023-08-30T12:54:09;4.03;;;3.27;;
73023;SDS011;61199;47.526;8.538;2023-08-30T12:56:36;3.97;;;3.30;;
73023;SDS011;61199;47.526;8.538;2023-08-30T12:59:02;5.87;;;3.37;;
73023;SDS011;61199;47.526;8.538;2023-08-30T13:01:30;9.90;;;2.80;;
73023;SDS011;61199;47.526;8.538;2023-08-30T13:03:57;4.27;;;3.30;;
73023;SDS011;61199;47.526;8.538;2023-08-30T13:06:23;4.80;;;3.30;;
73023;SDS011;61199;47.526;8.538;2023-08-30T13:08:50;4.33;;;3.50;;
73023;SDS011;61199;47.526;8.538;2023-08-30T13:11:16;7.00;;;3.97;;
73023;SDS011;61199;47.526;8.538;2023-08-30T13:13:42;8.70;;;4.83;;
73023;SDS011;61199;47.526;8.538;2023-08-30T13:16:09;5.57;;;4.70;;
73023;SDS011;61199;47.526;8.538;2023-08-30T13:18:35;8.13;;;4.37;;
73023;SDS011;61199;47.526;8.538;2023-08-30T13:21:02;4.50;;;4.10;;
73023;SDS011;61199;47.526;8.538;2023-08-30T13:23:30;4.27;;;3.60;;
73023;SDS011;61199;47.526;8.538;2023-08-30T13:25:57;6.37;;;3.57;;
73023;SDS011;61199;47.526;8.538;2023-08-30T13:28:23;6.77;;;4.50;;
73023;SDS011;61199;47.526;8.538;2023-08-30T13:30:50;7.03;;;4.00;;
73023;SDS011;61199;47.526;8.538;2023-08-30T13:33:17;7.27;;;3.30;;
73023;SDS011;61199;47.526;8.538;2023-08-30T13:35:48;3.60;;;2.60;;
73023;SDS011;61199;47.526;8.538;2023-08-30T13:38:16;3.20;;;2.83;;
73023;SDS011;61199;47.526;8.538;2023-08-30T13:40:42;3.20;;;2.67;;
73023;SDS011;61199;47.526;8.538;2023-08-30T13:43:09;7.73;;;2.97;;
73023;SDS011;61199;47.526;8.538;2023-08-30T13:45:36;3.70;;;2.47;;
73023;SDS011;61199;47.526;8.538;2023-08-30T13:48:02;3.47;;;2.70;;
73023;SDS011;61199;47.526;8.538;2023-08-30T13:50:29;5.17;;;2.47;;
73023;SDS011;61199;47.526;8.538;2023-08-30T13:52:58;12.73;;;2.60;;
73023;SDS011;61199;47.526;8.538;2023-08-30T13:55:24;2.43;;;2.20;;
73023;SDS011;61199;47.526;8.538;2023-08-30T13:57:51;3.50;;;2.07;;
73023;SDS011;61199;47.526;8.538;2023-08-30T14:00:17;2.33;;;1.90;;
73023;SDS011;61199;47.526;8.538;2023-08-30T14:02:44;4.43;;;2.00;;
73023;SDS011;61199;47.526;8.538;2023-08-30T14:05:11;2.87;;;2.07;;
73023;SDS011;61199;47.526;8.538;2023-08-30T14:07:37;6.93;;;2.20;;
73023;SDS011;61199;47.526;8.538;2023-08-30T14:10:04;3.40;;;2.33;;
73023;SDS011;61199;47.526;8.538;2023-08-30T14:12:31;1.90;;;1.70;;
73023;SDS011;61199;47.526;8.538;2023-08-30T14:14:59;3.90;;;2.20;;
73023;SDS011;61199;47.526;8.538;2023-08-30T14:17:26;2.50;;;2.00;;
73023;SDS011;61199;47.526;8.538;2023-08-30T14:19:52;2.10;;;1.80;;
73023;SDS011;61199;47.526;8.538;2023-08-30T14:22:18;3.00;;;1.53;;
73023;SDS011;61199;47.526;8.538;2023-08-30T14:24:45;2.60;;;1.80;;
73023;SDS011;61199;47.526;8.538;2023-08-30T14:27:32;2.40;;;1.80;;
73023;SDS011;61199;47.526;8.538;2023-08-30T14:29:59;2.67;;;1.63;;
73023;SDS011;61199;47.526;8.538;2023-08-30T14:32:26;4.03;;;1.60;;
73023;SDS011;61199;47.526;8.538;2023-08-30T14:34:53;2.23;;;1.60;;
73023;SDS011;61199;47.526;8.538;2023-08-30T14:37:19;1.83;;;1.40;;
73023;SDS011;61199;47.526;8.538;2023-08-30T14:39:47;2.00;;;1.80;;
73023;SDS011;61199;47.526;8.538;2023-08-30T14:42:13;4.57;;;1.93;;
73023;SDS011;61199;47.526;8.538;2023-08-30T14:44:39;2.40;;;1.73;;